Terminal Aerodrome Forecast
Issued by NWS North Platte, NE

Home | Current Version | Previous Version | Text Only | Print | Product List | Glossary On
Versions: 1 2 3 4 5 6 7 8 9 10 11 12 13 14 15
000
FTUS43 KLBF 011700
TAFLBF
TAF
KLBF 011729Z 0118/0218 01007KT P6SM BKN150 BKN250
     FM020300 36013KT 3SM TSRA OVC050CB
     FM020900 33012KT P6SM -SHRA SCT020 OVC080
     FM021200 33010KT P6SM SCT020 BKN080=

USA.gov is the U.S. government's official web portal to all federal, state and local government web resources and services.